M I D A S
Marine Information and Data Acquisition System
Tripno 1711 of the Zeeleeuw from 2009-06-17 08:24:53 to 2009-06-17 18:02:55
Back to CruiseResearch ActivitiesStationsMapUnderway DataData graphs

EquipmentUnitsComments
TimeDGPSUTC
LatitudeDGPSDM.mWGS84
LongitudeDGPSDM.mWGS84
SpeedMeteo Stationm/sRelative wind speed
DirectionMeteo StationdegRelative wind direction
TemperatureMeteo Stationdeg CelciusAir temperature
PressureMeteo StationPaAtmospheric pressure
HumidityMeteo Station%Relative humidity
Missing or incorrect values are displayed as -999
Metereological data collected by the RV Zeeleeuw from 2009-06-17 08:10:31 to 2009-06-17 18:11:20
                                                                                    Next 1000 lines
Time Latitude Longitude Speed Direction Temperature Pressure Humidity
2009-06-17 08:10:41 51°13.662 2°55.955 2.3 19 18.2 102120 63
2009-06-17 08:10:46 51°13.663 2°55.951 1.9 19 18.2 102120 63
2009-06-17 08:10:51 51°13.664 2°55.947 2.1 278 18.2 102120 62
2009-06-17 08:10:57 51°13.666 2°55.941 3 356 18.2 102120 62
2009-06-17 08:11:02 51°13.667 2°55.935 2.9 359 18.2 102120 63
2009-06-17 08:11:08 51°13.669 2°55.929 2.4 352 18.2 102120 63
2009-06-17 08:11:13 51°13.671 2°55.923 4 349 18.3 102120 63
2009-06-17 08:11:19 51°13.673 2°55.916 3.1 359 18.3 102120 63
2009-06-17 08:11:25 51°13.676 2°55.908 3.3 359 18.3 102120 63
2009-06-17 08:11:29 51°13.677 2°55.902 3.4 9 18.3 102120 63
2009-06-17 08:11:35 51°13.68 2°55.894 3.1 12 18.3 102120 63
2009-06-17 08:11:40 51°13.682 2°55.887 2.3 18 18.3 102120 63
2009-06-17 08:11:44 51°13.683 2°55.881 2.9 8 18.3 102120 62
2009-06-17 08:11:49 51°13.685 2°55.873 3 9 18.3 102120 62
2009-06-17 08:11:55 51°13.687 2°55.863 2.4 10 18.3 102120 62
2009-06-17 08:12:00 51°13.688 2°55.856 2.1 17 18.3 102120 62
2009-06-17 08:12:05 51°13.69 2°55.848 1.7 21 18.4 102120 63
2009-06-17 08:12:09 51°13.69 2°55.842 2.1 37 18.4 102120 63
2009-06-17 08:12:15 51°13.691 2°55.833 1.6 38 18.4 102120 62
2009-06-17 08:12:20 51°13.692 2°55.825 2.4 25 18.4 102120 62
2009-06-17 08:12:25 51°13.693 2°55.818 1.9 21 18.4 102120 62
2009-06-17 08:12:30 51°13.693 2°55.811 0.9 5 18.4 102120 62
2009-06-17 08:12:35 51°13.694 2°55.804 0.8 24 18.4 102120 62
2009-06-17 08:12:40 51°13.694 2°55.797 2 30 18.4 102120 62
2009-06-17 08:12:45 51°13.694 2°55.791 3.3 36 18.4 102120 62
2009-06-17 08:12:49 51°13.695 2°55.786 3.9 34 18.4 102120 62
2009-06-17 08:12:55 51°13.695 2°55.779 3.5 25 18.4 102120 62
2009-06-17 08:13:00 51°13.695 2°55.773 2.5 27 18.4 102120 62
2009-06-17 08:13:04 51°13.695 2°55.769 2.5 33 18.5 102120 62
2009-06-17 08:13:09 51°13.695 2°55.765 3.1 32 18.5 102120 62
2009-06-17 08:13:14 51°13.695 2°55.762 3.2 33 18.5 102120 62
2009-06-17 08:13:19 51°13.695 2°55.76 2.7 31 18.5 102120 62
2009-06-17 08:13:24 51°13.695 2°55.758 3 29 18.5 102120 62
2009-06-17 08:13:29 51°13.696 2°55.758 2.3 32 18.5 102120 62
2009-06-17 08:13:33 51°13.697 2°55.758 3.5 30 18.5 102120 63
2009-06-17 08:13:38 51°13.698 2°55.759 2.8 24 18.5 102120 63
2009-06-17 08:13:43 51°13.699 2°55.76 2.9 37 18.5 102120 63
2009-06-17 08:13:48 51°13.7 2°55.761 2.9 28 18.5 102120 63
2009-06-17 08:13:53 51°13.702 2°55.762 3.3 41 18.6 102120 62
2009-06-17 08:13:57 51°13.703 2°55.762 3.2 34 18.6 102120 62
2009-06-17 08:14:02 51°13.704 2°55.763 3.9 35 18.6 102120 62
2009-06-17 08:14:07 51°13.705 2°55.763 4.6 39 18.6 102120 62
2009-06-17 08:14:12 51°13.706 2°55.763 3.8 39 18.6 102120 61
2009-06-17 08:14:17 51°13.706 2°55.763 4 36 18.6 102120 61
2009-06-17 08:14:22 51°13.706 2°55.762 4.6 81 18.6 102120 61
2009-06-17 08:14:27 51°13.706 2°55.761 4.1 31 18.6 102120 61
2009-06-17 08:14:32 51°13.706 2°55.76 4.2 42 18.6 102120 61
2009-06-17 08:14:37 51°13.705 2°55.759 3.2 37 18.6 102120 61
2009-06-17 08:14:41 51°13.704 2°55.758 2.2 38 18.6 102120 61
2009-06-17 08:14:46 51°13.704 2°55.758 1.6 43 18.6 102120 61
2009-06-17 08:14:51 51°13.703 2°55.757 2.6 43 18.6 102110 62
2009-06-17 08:14:56 51°13.704 2°55.756 3.1 41 18.6 102110 62
2009-06-17 08:15:01 51°13.705 2°55.755 2.5 76 18.7 102120 62
2009-06-17 08:15:06 51°13.708 2°55.755 2.1 33 18.7 102120 62
2009-06-17 08:15:11 51°13.711 2°55.753 1.2 75 18.7 102120 62
2009-06-17 08:15:16 51°13.714 2°55.751 1.6 38 18.7 102120 62
2009-06-17 08:15:21 51°13.718 2°55.748 1.1 286 18.7 102120 61
2009-06-17 08:15:25 51°13.721 2°55.746 2.3 41 18.7 102120 61
2009-06-17 08:15:31 51°13.726 2°55.74 2.3 31 18.7 102120 61
2009-06-17 08:15:36 51°13.731 2°55.735 1.6 33 18.7 102120 61
2009-06-17 08:15:41 51°13.737 2°55.729 1.9 286 18.7 102120 61
2009-06-17 08:15:45 51°13.742 2°55.724 3 241 18.7 102120 61
2009-06-17 08:15:51 51°13.75 2°55.715 1.4 83 18.7 102120 62
2009-06-17 08:15:56 51°13.757 2°55.708 0.9 35 18.7 102120 62
2009-06-17 08:16:01 51°13.764 2°55.7 1.7 287 18.7 102120 61
2009-06-17 08:16:05 51°13.771 2°55.693 1.8 237 18.7 102120 61
2009-06-17 08:16:11 51°13.781 2°55.683 0.9 284 18.8 102120 62
2009-06-17 08:16:16 51°13.789 2°55.675 1.3 317 18.8 102120 62
2009-06-17 08:16:21 51°13.798 2°55.667 2.4 280 18.8 102120 62
2009-06-17 08:16:26 51°13.807 2°55.659 2.3 241 18.8 102120 62
2009-06-17 08:16:31 51°13.817 2°55.651 1.7 19 18.8 102120 62
2009-06-17 08:16:36 51°13.826 2°55.642 2.2 253 18.8 102120 62
2009-06-17 08:16:41 51°13.836 2°55.635 2.2 278 18.8 102120 62
2009-06-17 08:16:46 51°13.846 2°55.626 1.9 231 18.8 102120 62
2009-06-17 08:16:51 51°13.856 2°55.618 0.7 280 18.9 102120 62
2009-06-17 08:16:56 51°13.866 2°55.61 1.3 231 18.9 102120 62
2009-06-17 08:17:01 51°13.876 2°55.602 1.5 281 18.9 102120 61
2009-06-17 08:17:06 51°13.886 2°55.594 1.7 34 18.9 102120 61
2009-06-17 08:17:11 51°13.897 2°55.586 2.1 279 18.9 102120 61
2009-06-17 08:17:16 51°13.908 2°55.578 2.2 318 18.9 102120 61
2009-06-17 08:17:21 51°13.918 2°55.571 1.9 280 18.9 102120 61
2009-06-17 08:17:26 51°13.929 2°55.563 2.1 37 18.9 102120 61
2009-06-17 08:17:31 51°13.939 2°55.554 2.1 26 19 102120 61
2009-06-17 08:17:36 51°13.949 2°55.546 2 239 19 102120 61
2009-06-17 08:17:41 51°13.96 2°55.538 2.7 287 19 102120 61
2009-06-17 08:17:46 51°13.97 2°55.53 2.7 253 19 102120 61
2009-06-17 08:17:51 51°13.98 2°55.522 2.4 286 19.1 102120 61
2009-06-17 08:17:56 51°13.991 2°55.514 1.8 251 19.1 102120 61
2009-06-17 08:18:01 51°14.001 2°55.505 2.9 280 19.1 102120 61
2009-06-17 08:18:05 51°14.01 2°55.498 2.4 242 19.1 102120 61
2009-06-17 08:18:11 51°14.022 2°55.488 1.7 284 19.1 102120 60
2009-06-17 08:18:16 51°14.033 2°55.48 2 255 19.1 102120 60
2009-06-17 08:18:21 51°14.044 2°55.472 2.1 283 19.1 102120 60
2009-06-17 08:18:25 51°14.053 2°55.465 1.5 265 19.1 102120 60
2009-06-17 08:18:31 51°14.065 2°55.455 1.6 263 19.2 102120 60
2009-06-17 08:18:36 51°14.076 2°55.447 2.3 256 19.2 102120 60
2009-06-17 08:18:41 51°14.087 2°55.438 2.1 285 19.2 102120 60
2009-06-17 08:18:46 51°14.097 2°55.429 1.9 264 19.2 102120 60
2009-06-17 08:18:51 51°14.108 2°55.421 1.5 276 19.2 102120 60
2009-06-17 08:18:56 51°14.118 2°55.411 1.8 256 19.2 102120 60
2009-06-17 08:19:01 51°14.129 2°55.403 1.7 282 19.2 102120 59
2009-06-17 08:19:06 51°14.14 2°55.393 2 45 19.2 102120 59
2009-06-17 08:19:11 51°14.15 2°55.384 2 279 19.2 102120 60
2009-06-17 08:19:16 51°14.16 2°55.374 3.1 256 19.2 102120 60
2009-06-17 08:19:21 51°14.171 2°55.364 1.8 277 19.3 102120 60
2009-06-17 08:19:26 51°14.181 2°55.353 2.3 254 19.3 102120 60
2009-06-17 08:19:31 51°14.19 2°55.342 2.4 20 19.3 102120 59
2009-06-17 08:19:36 51°14.2 2°55.331 2.5 254 19.3 102120 59
2009-06-17 08:19:41 51°14.21 2°55.32 1.8 279 19.3 102120 59
2009-06-17 08:19:46 51°14.219 2°55.308 1.7 260 19.3 102120 59
2009-06-17 08:19:51 51°14.229 2°55.295 2.8 284 19.3 102110 59
2009-06-17 08:19:56 51°14.238 2°55.281 2.5 254 19.3 102110 59
2009-06-17 08:20:01 51°14.247 2°55.268 1.9 283 19.3 102110 60
2009-06-17 08:20:06 51°14.255 2°55.254 2.7 239 19.3 102110 60
2009-06-17 08:20:11 51°14.264 2°55.24 3.9 286 19.4 102110 60
2009-06-17 08:20:16 51°14.273 2°55.225 3.3 237 19.4 102110 60
2009-06-17 08:20:21 51°14.281 2°55.21 4.3 280 19.4 102110 59
2009-06-17 08:20:26 51°14.29 2°55.195 4.9 244 19.4 102110 59
2009-06-17 08:20:31 51°14.298 2°55.18 4.4 21 19.4 102110 59
2009-06-17 08:20:36 51°14.307 2°55.164 4.1 246 19.4 102110 59
2009-06-17 08:20:41 51°14.315 2°55.149 4.1 283 19.4 102110 60
2009-06-17 08:20:45 51°14.322 2°55.136 3.7 247 19.4 102110 60
2009-06-17 08:20:51 51°14.333 2°55.117 3.7 283 19.4 102110 59
2009-06-17 08:20:56 51°14.341 2°55.1 4.6 237 19.4 102110 59
2009-06-17 08:21:01 51°14.349 2°55.083 5.4 279 19.4 102120 59
2009-06-17 08:21:05 51°14.355 2°55.07 4.7 32 19.4 102120 59
2009-06-17 08:21:11 51°14.365 2°55.049 4.3 278 19.4 102120 59
2009-06-17 08:21:16 51°14.374 2°55.031 4.4 233 19.4 102120 59
2009-06-17 08:21:21 51°14.382 2°55.013 4.5 279 19.4 102110 59
2009-06-17 08:21:26 51°14.39 2°54.996 5.1 38 19.4 102110 59
2009-06-17 08:21:31 51°14.398 2°54.977 5.1 26 19.4 102110 59
2009-06-17 08:21:36 51°14.406 2°54.959 4 241 19.4 102110 59
2009-06-17 08:21:41 51°14.413 2°54.939 2.3 281 19.4 102110 58
2009-06-17 08:21:46 51°14.421 2°54.921 4.1 38 19.4 102110 58
2009-06-17 08:21:51 51°14.428 2°54.902 5.9 282 19.4 102110 58
2009-06-17 08:21:56 51°14.436 2°54.883 5.3 236 19.4 102110 58
2009-06-17 08:22:01 51°14.444 2°54.865 6.3 285 19.3 102110 59
2009-06-17 08:22:06 51°14.453 2°54.846 5.4 241 19.3 102110 59
2009-06-17 08:22:11 51°14.461 2°54.827 5.8 277 19.3 102110 59
2009-06-17 08:22:16 51°14.469 2°54.808 5.1 240 19.3 102110 59
2009-06-17 08:22:21 51°14.477 2°54.789 4.6 282 19.3 102110 59
2009-06-17 08:22:26 51°14.485 2°54.771 4.8 238 19.3 102110 59
2009-06-17 08:22:31 51°14.493 2°54.752 5.7 20 19.3 102100 59
2009-06-17 08:22:36 51°14.502 2°54.733 5.1 235 19.3 102100 59
2009-06-17 08:22:41 51°14.511 2°54.714 5.6 279 19.3 102100 59
2009-06-17 08:22:46 51°14.519 2°54.694 5.7 238 19.3 102100 59
2009-06-17 08:22:51 51°14.527 2°54.674 6.4 279 19.3 102110 59
2009-06-17 08:22:56 51°14.535 2°54.654 5.6 235 19.3 102110 59
2009-06-17 08:23:01 51°14.543 2°54.633 5.1 279 19.3 102100 60
2009-06-17 08:23:06 51°14.551 2°54.612 4.3 242 19.3 102100 60
2009-06-17 08:23:11 51°14.559 2°54.591 3.9 285 19.3 102100 60
2009-06-17 08:23:16 51°14.568 2°54.57 4.3 238 19.3 102100 60
2009-06-17 08:23:21 51°14.576 2°54.549 4.9 277 19.3 102100 59
2009-06-17 08:23:26 51°14.584 2°54.527 4.8 32 19.3 102100 59
2009-06-17 08:23:31 51°14.592 2°54.505 5.8 28 19.3 102110 59
2009-06-17 08:23:36 51°14.601 2°54.484 6.8 245 19.3 102110 59
2009-06-17 08:23:41 51°14.609 2°54.463 5.4 278 19.3 102110 59
2009-06-17 08:23:46 51°14.618 2°54.441 6.1 244 19.3 102110 59
2009-06-17 08:23:51 51°14.626 2°54.42 4.6 279 19.3 102100 59
2009-06-17 08:23:56 51°14.635 2°54.398 5.6 243 19.3 102100 59
2009-06-17 08:24:01 51°14.643 2°54.377 6.6 286 19.3 102110 60
2009-06-17 08:24:06 51°14.651 2°54.355 6.8 243 19.3 102110 60
2009-06-17 08:24:11 51°14.658 2°54.333 5.2 278 19.3 102110 60
2009-06-17 08:24:16 51°14.666 2°54.311 5.9 243 19.3 102110 60
2009-06-17 08:24:21 51°14.673 2°54.288 6 280 19.3 102110 61
2009-06-17 08:24:26 51°14.68 2°54.266 5.5 244 19.3 102110 61
2009-06-17 08:24:31 51°14.687 2°54.243 5.2 22 19.3 102090 60
2009-06-17 08:24:36 51°14.693 2°54.22 6.7 245 19.3 102090 60
2009-06-17 08:24:41 51°14.7 2°54.197 5.2 279 19.2 102100 60
2009-06-17 08:24:46 51°14.706 2°54.174 5.3 242 19.2 102100 60
2009-06-17 08:24:51 51°14.712 2°54.151 4.8 279 19.2 102100 60
2009-06-17 08:24:56 51°14.718 2°54.127 5.8 243 19.2 102100 60
2009-06-17 08:25:01 51°14.724 2°54.104 4.4 278 19.2 102100 59
2009-06-17 08:25:06 51°14.73 2°54.08 5.2 244 19.2 102100 59
2009-06-17 08:25:11 51°14.736 2°54.057 4.6 286 19.2 102100 59
2009-06-17 08:25:16 51°14.742 2°54.034 5.4 32 19.2 102100 59
2009-06-17 08:25:21 51°14.747 2°54.011 5.4 279 19.2 102100 59
2009-06-17 08:25:26 51°14.753 2°53.987 4.8 234 19.2 102100 59
2009-06-17 08:25:31 51°14.76 2°53.964 5.3 27 19.2 102100 59
2009-06-17 08:25:36 51°14.766 2°53.941 6.1 235 19.2 102100 59
2009-06-17 08:25:41 51°14.772 2°53.917 5.7 277 19.2 102100 59
2009-06-17 08:25:46 51°14.777 2°53.894 6.1 234 19.2 102100 59
2009-06-17 08:25:51 51°14.783 2°53.871 6.1 286 19.2 102100 60
2009-06-17 08:25:56 51°14.789 2°53.848 7.3 33 19.2 102100 60
2009-06-17 08:26:01 51°14.795 2°53.824 7.2 279 19.2 102100 60
2009-06-17 08:26:06 51°14.8 2°53.801 6.9 33 19.2 102100 60
2009-06-17 08:26:11 51°14.806 2°53.777 7.3 280 19.2 102100 60
2009-06-17 08:26:16 51°14.812 2°53.754 7.3 237 19.2 102100 60
2009-06-17 08:26:21 51°14.817 2°53.73 6.9 284 19.2 102100 61
2009-06-17 08:26:26 51°14.823 2°53.707 7.9 238 19.2 102100 61
2009-06-17 08:26:31 51°14.828 2°53.684 8.3 29 19.2 102100 61
2009-06-17 08:26:36 51°14.834 2°53.66 7.5 237 19.2 102100 61
2009-06-17 08:26:41 51°14.839 2°53.636 6.8 286 19.1 102100 61
2009-06-17 08:26:46 51°14.844 2°53.613 6.7 37 19.1 102100 61
2009-06-17 08:26:51 51°14.849 2°53.589 7.7 283 19.1 102100 61
2009-06-17 08:26:56 51°14.855 2°53.565 8.4 34 19.1 102100 61
2009-06-17 08:27:01 51°14.861 2°53.541 8.6 279 19.1 102100 61
2009-06-17 08:27:05 51°14.865 2°53.522 8.6 232 19.1 102100 61
2009-06-17 08:27:11 51°14.872 2°53.494 8.7 278 19.1 102100 61
2009-06-17 08:27:16 51°14.878 2°53.47 8.2 32 19.1 102100 61
2009-06-17 08:27:21 51°14.884 2°53.447 7.7 286 19.1 102090 60
2009-06-17 08:27:26 51°14.89 2°53.423 8 241 19.1 102090 60
2009-06-17 08:27:31 51°14.895 2°53.399 7.6 26 19 102090 60
2009-06-17 08:27:36 51°14.901 2°53.375 7.7 240 19 102090 60
2009-06-17 08:27:41 51°14.907 2°53.352 9.6 278 19 102090 60
2009-06-17 08:27:46 51°14.913 2°53.328 9.2 241 19 102090 60
2009-06-17 08:27:51 51°14.919 2°53.304 7.4 281 19 102090 60
2009-06-17 08:27:56 51°14.925 2°53.281 8.3 244 19 102090 60
2009-06-17 08:28:01 51°14.931 2°53.257 6.5 280 19 102090 60
2009-06-17 08:28:06 51°14.937 2°53.233 5.7 245 19 102090 60
2009-06-17 08:28:11 51°14.943 2°53.21 6 278 19 102090 61
2009-06-17 08:28:16 51°14.949 2°53.186 6.5 241 19 102090 61
2009-06-17 08:28:21 51°14.955 2°53.162 7.7 284 19 102090 60
2009-06-17 08:28:26 51°14.96 2°53.138 7.8 238 19 102090 60
2009-06-17 08:28:31 51°14.966 2°53.115 8.1 22 19 102100 60
2009-06-17 08:28:36 51°14.972 2°53.091 6.8 238 19 102100 60
2009-06-17 08:28:41 51°14.978 2°53.067 8.1 280 19 102090 60
2009-06-17 08:28:46 51°14.984 2°53.044 6.9 240 19 102090 60
2009-06-17 08:28:51 51°14.99 2°53.02 8.4 280 19 102090 61
2009-06-17 08:28:56 51°14.995 2°52.997 6.4 243 19 102090 61
2009-06-17 08:29:01 51°15 2°52.973 6.5 279 19 102100 61
2009-06-17 08:29:06 51°15.005 2°52.949 6.2 240 19 102100 61
2009-06-17 08:29:11 51°15.01 2°52.925 8.3 284 19 102080 61
2009-06-17 08:29:16 51°15.015 2°52.901 6.5 240 19 102080 61
2009-06-17 08:29:21 51°15.019 2°52.877 6.4 26 18.9 102090 60
2009-06-17 08:29:26 51°15.024 2°52.853 8.3 239 18.9 102090 60
2009-06-17 08:29:31 51°15.029 2°52.828 8.7 22 18.9 102100 61
2009-06-17 08:29:36 51°15.033 2°52.804 6.6 242 18.9 102100 61
2009-06-17 08:29:41 51°15.037 2°52.78 6.3 284 18.9 102100 61
2009-06-17 08:29:46 51°15.041 2°52.756 7 244 18.9 102100 61
2009-06-17 08:29:51 51°15.045 2°52.732 8.2 285 18.9 102100 61
2009-06-17 08:29:56 51°15.049 2°52.708 7 243 18.9 102100 61
2009-06-17 08:30:01 51°15.054 2°52.683 7.2 276 18.9 102090 61
2009-06-17 08:30:05 51°15.057 2°52.664 6.4 245 18.9 102090 61
2009-06-17 08:30:11 51°15.062 2°52.635 6.8 25 18.9 102100 61
2009-06-17 08:30:16 51°15.065 2°52.611 7.7 34 18.9 102100 61
2009-06-17 08:30:21 51°15.067 2°52.586 7.9 283 18.9 102100 62
2009-06-17 08:30:26 51°15.07 2°52.562 7.2 31 18.9 102100 62
2009-06-17 08:30:31 51°15.071 2°52.537 8.2 25 18.9 102090 61
2009-06-17 08:30:36 51°15.072 2°52.513 7.9 233 18.9 102090 61
2009-06-17 08:30:41 51°15.073 2°52.488 7.8 279 18.9 102090 62
2009-06-17 08:30:46 51°15.074 2°52.464 7.3 31 18.9 102090 62
2009-06-17 08:30:51 51°15.073 2°52.439 9 284 18.9 102090 62
2009-06-17 08:30:56 51°15.073 2°52.414 7.8 35 18.9 102090 62
2009-06-17 08:31:01 51°15.073 2°52.389 9.7 279 18.9 102100 63
2009-06-17 08:31:06 51°15.072 2°52.365 8.9 234 18.9 102100 63
2009-06-17 08:31:11 51°15.07 2°52.34 8 278 18.9 102080 62
2009-06-17 08:31:16 51°15.069 2°52.316 9.9 36 18.9 102080 62
2009-06-17 08:31:21 51°15.068 2°52.291 8.2 279 18.8 102090 61
2009-06-17 08:31:26 51°15.066 2°52.267 9.5 232 18.8 102090 61
2009-06-17 08:31:31 51°15.065 2°52.242 9.2 22 18.8 102080 62
2009-06-17 08:31:36 51°15.063 2°52.218 9.3 34 18.8 102080 62
2009-06-17 08:31:41 51°15.061 2°52.194 8.2 285 18.8 102080 62
2009-06-17 08:31:46 51°15.06 2°52.169 9 36 18.8 102080 62
2009-06-17 08:31:51 51°15.058 2°52.145 9.6 278 18.8 102080 62
2009-06-17 08:31:56 51°15.056 2°52.121 8.2 32 18.8 102080 62
2009-06-17 08:32:01 51°15.055 2°52.096 9.2 281 18.8 102080 62
2009-06-17 08:32:06 51°15.052 2°52.072 9.3 31 18.8 102080 62
2009-06-17 08:32:11 51°15.051 2°52.047 9.6 279 18.8 102080 62
2009-06-17 08:32:16 51°15.05 2°52.023 9.1 36 18.8 102080 62
2009-06-17 08:32:21 51°15.048 2°51.999 9.2 283 18.8 102090 62
2009-06-17 08:32:26 51°15.046 2°51.974 9.2 35 18.8 102090 62
2009-06-17 08:32:31 51°15.044 2°51.95 11.1 21 18.8 102080 63
2009-06-17 08:32:36 51°15.042 2°51.926 10.8 32 18.8 102080 63
2009-06-17 08:32:41 51°15.04 2°51.902 10.7 280 18.7 102080 63
2009-06-17 08:32:46 51°15.039 2°51.878 10.2 233 18.7 102080 63
2009-06-17 08:32:51 51°15.037 2°51.853 10.1 24 18.7 102090 63
2009-06-17 08:32:56 51°15.035 2°51.829 9.2 235 18.7 102090 63
2009-06-17 08:33:01 51°15.034 2°51.804 7.5 284 18.7 102090 62
2009-06-17 08:33:06 51°15.033 2°51.78 7.6 232 18.7 102090 62
2009-06-17 08:33:11 51°15.031 2°51.755 9.1 281 18.7 102080 62
2009-06-17 08:33:16 51°15.03 2°51.731 8.1 36 18.7 102080 62
2009-06-17 08:33:21 51°15.028 2°51.706 7.5 279 18.7 102080 62
2009-06-17 08:33:26 51°15.027 2°51.682 9.4 33 18.7 102080 62
2009-06-17 08:33:31 51°15.026 2°51.657 7.9 28 18.7 102080 62
2009-06-17 08:33:36 51°15.025 2°51.633 7.8 36 18.7 102080 62
2009-06-17 08:33:41 51°15.024 2°51.608 7.6 285 18.7 102080 63
2009-06-17 08:33:46 51°15.024 2°51.584 8.9 235 18.7 102080 63
2009-06-17 08:33:51 51°15.023 2°51.559 8.9 282 18.6 102080 62
2009-06-17 08:33:56 51°15.023 2°51.534 8.5 38 18.6 102080 62
2009-06-17 08:34:01 51°15.023 2°51.51 7.8 279 18.7 102080 63
2009-06-17 08:34:06 51°15.023 2°51.485 8.6 36 18.7 102080 63
2009-06-17 08:34:11 51°15.024 2°51.461 9 285 18.6 102090 63
2009-06-17 08:34:16 51°15.024 2°51.436 7.7 32 18.6 102090 63
2009-06-17 08:34:21 51°15.025 2°51.411 6.8 281 18.6 102080 63
2009-06-17 08:34:26 51°15.027 2°51.387 8.2 39 18.6 102080 63
2009-06-17 08:34:31 51°15.029 2°51.363 6.5 28 18.6 102080 63
2009-06-17 08:34:36 51°15.032 2°51.338 7.6 39 18.6 102080 63
2009-06-17 08:34:41 51°15.035 2°51.314 7.6 281 18.6 102080 63
2009-06-17 08:34:46 51°15.038 2°51.29 6.6 233 18.6 102080 63
2009-06-17 08:34:51 51°15.042 2°51.265 6.6 284 18.6 102080 64
2009-06-17 08:34:56 51°15.046 2°51.241 7.8 234 18.6 102080 64
2009-06-17 08:35:01 51°15.05 2°51.217 7.7 286 18.6 102090 64
2009-06-17 08:35:06 51°15.054 2°51.193 6.3 236 18.6 102090 64
2009-06-17 08:35:11 51°15.059 2°51.169 6.8 29 18.6 102080 65
2009-06-17 08:35:16 51°15.063 2°51.146 9.6 240 18.6 102080 65
2009-06-17 08:35:21 51°15.068 2°51.122 9.5 284 18.6 102080 64
2009-06-17 08:35:26 51°15.072 2°51.097 8 238 18.6 102080 64
2009-06-17 08:35:31 51°15.077 2°51.073 9.4 23 18.6 102090 64
2009-06-17 08:35:36 51°15.082 2°51.049 7.8 241 18.6 102090 64
2009-06-17 08:35:41 51°15.087 2°51.026 9.3 281 18.6 102080 64
2009-06-17 08:35:46 51°15.092 2°51.002 9.6 241 18.6 102080 64
2009-06-17 08:35:51 51°15.097 2°50.978 8.4 284 18.6 102070 65
2009-06-17 08:35:56 51°15.102 2°50.954 8.6 238 18.6 102070 65
2009-06-17 08:36:01 51°15.107 2°50.93 8.6 285 18.6 102080 63
2009-06-17 08:36:06 51°15.111 2°50.906 8.1 241 18.6 102080 63
2009-06-17 08:36:11 51°15.116 2°50.882 7.7 277 18.6 102080 63
2009-06-17 08:36:16 51°15.121 2°50.858 9.6 241 18.6 102080 63
2009-06-17 08:36:21 51°15.125 2°50.834 8.8 278 18.6 102080 63
2009-06-17 08:36:26 51°15.13 2°50.81 9.8 243 18.6 102080 63
2009-06-17 08:36:31 51°15.135 2°50.786 9.5 27 18.6 102070 63
2009-06-17 08:36:36 51°15.139 2°50.761 8.8 241 18.6 102070 63
2009-06-17 08:36:41 51°15.143 2°50.737 6.9 284 18.6 102070 64
2009-06-17 08:36:46 51°15.148 2°50.712 7.4 244 18.6 102070 64
2009-06-17 08:36:51 51°15.153 2°50.688 7.2 285 18.6 102080 63
2009-06-17 08:36:56 51°15.157 2°50.664 8.6 239 18.6 102080 63
2009-06-17 08:37:01 51°15.161 2°50.639 8.8 286 18.6 102080 64
2009-06-17 08:37:06 51°15.166 2°50.615 7.2 240 18.6 102080 64
2009-06-17 08:37:11 51°15.17 2°50.591 9.1 280 18.6 102080 64
2009-06-17 08:37:16 51°15.174 2°50.566 8.7 241 18.6 102080 64
2009-06-17 08:37:21 51°15.179 2°50.542 9 279 18.6 102080 64
2009-06-17 08:37:26 51°15.183 2°50.518 7.4 241 18.6 102080 64
2009-06-17 08:37:31 51°15.188 2°50.493 8.6 29 18.6 102080 64
2009-06-17 08:37:36 51°15.192 2°50.469 7.9 240 18.6 102080 64
2009-06-17 08:37:41 51°15.197 2°50.445 8.5 279 18.6 102080 64
2009-06-17 08:37:46 51°15.201 2°50.421 8.6 238 18.6 102080 64
2009-06-17 08:37:51 51°15.205 2°50.396 7.3 282 18.6 102080 64
2009-06-17 08:37:56 51°15.21 2°50.372 6.7 237 18.6 102080 64
2009-06-17 08:38:01 51°15.214 2°50.348 6.4 279 18.6 102080 64
2009-06-17 08:38:06 51°15.218 2°50.323 7.6 233 18.6 102080 64
2009-06-17 08:38:11 51°15.222 2°50.299 6.9 280 18.6 102080 64
2009-06-17 08:38:16 51°15.226 2°50.274 6.6 238 18.6 102080 64
2009-06-17 08:38:21 51°15.231 2°50.25 7.9 285 18.6 102070 64
2009-06-17 08:38:26 51°15.235 2°50.226 8.2 236 18.6 102070 64
2009-06-17 08:38:31 51°15.239 2°50.201 8 26 18.6 102080 64
2009-06-17 08:38:36 51°15.243 2°50.177 7.5 235 18.6 102080 64
2009-06-17 08:38:41 51°15.247 2°50.153 6.4 281 18.6 102090 64
2009-06-17 08:38:46 51°15.251 2°50.128 7.9 238 18.6 102090 64
2009-06-17 08:38:51 51°15.255 2°50.104 6.5 284 18.6 102080 65
2009-06-17 08:38:56 51°15.259 2°50.079 7.8 31 18.6 102080 65
2009-06-17 08:39:01 51°15.263 2°50.055 6.3 278 18.6 102080 65
2009-06-17 08:39:06 51°15.267 2°50.031 6.4 236 18.6 102080 65
2009-06-17 08:39:11 51°15.271 2°50.006 6.5 284 18.6 102080 65
2009-06-17 08:39:16 51°15.275 2°49.982 7.7 236 18.6 102080 65
2009-06-17 08:39:21 51°15.28 2°49.958 7.5 280 18.6 102080 65
2009-06-17 08:39:26 51°15.284 2°49.933 7.5 238 18.6 102080 65
2009-06-17 08:39:31 51°15.289 2°49.909 7.9 27 18.6 102080 65
2009-06-17 08:39:36 51°15.293 2°49.885 6.4 238 18.6 102080 65
2009-06-17 08:39:41 51°15.298 2°49.861 6.1 276 18.6 102090 65
2009-06-17 08:39:46 51°15.303 2°49.837 7.6 240 18.6 102090 65
2009-06-17 08:39:51 51°15.308 2°49.813 5.7 286 18.6 102080 65
2009-06-17 08:39:56 51°15.312 2°49.788 7.1 31 18.6 102080 65
2009-06-17 08:40:01 51°15.317 2°49.764 5.8 281 18.6 102080 64
2009-06-17 08:40:06 51°15.321 2°49.74 7.2 234 18.6 102080 64
2009-06-17 08:40:11 51°15.327 2°49.716 6 282 18.6 102080 65
2009-06-17 08:40:16 51°15.331 2°49.692 5.6 235 18.6 102080 65
2009-06-17 08:40:21 51°15.336 2°49.668 7.2 279 18.6 102080 66
2009-06-17 08:40:26 51°15.34 2°49.644 5.9 31 18.6 102080 66
2009-06-17 08:40:31 51°15.345 2°49.62 7.1 26 18.6 102090 66
2009-06-17 08:40:36 51°15.35 2°49.595 5.8 34 18.6 102090 66
2009-06-17 08:40:41 51°15.354 2°49.571 6.4 285 18.6 102090 66
2009-06-17 08:40:46 51°15.359 2°49.547 7.9 236 18.6 102090 66
2009-06-17 08:40:51 51°15.363 2°49.523 7.9 278 18.6 102080 66
2009-06-17 08:40:56 51°15.367 2°49.499 7.2 238 18.6 102080 66
2009-06-17 08:41:01 51°15.372 2°49.475 7.6 281 18.6 102080 66
2009-06-17 08:41:05 51°15.375 2°49.455 7.5 234 18.6 102080 66
2009-06-17 08:41:11 51°15.381 2°49.426 5.9 282 18.5 102080 66
2009-06-17 08:41:16 51°15.385 2°49.402 7.5 34 18.5 102080 66
2009-06-17 08:41:21 51°15.39 2°49.378 6.7 286 18.5 102080 66
2009-06-17 08:41:26 51°15.394 2°49.354 7.6 236 18.5 102080 66
2009-06-17 08:41:31 51°15.398 2°49.33 8.3 28 18.5 102070 65
2009-06-17 08:41:36 51°15.402 2°49.306 6.4 235 18.5 102070 65
2009-06-17 08:41:41 51°15.407 2°49.281 6.4 277 18.5 102080 65
2009-06-17 08:41:46 51°15.411 2°49.257 6.2 237 18.5 102080 65
2009-06-17 08:41:51 51°15.415 2°49.233 7.3 280 18.5 102080 65
2009-06-17 08:41:56 51°15.419 2°49.209 6.9 235 18.5 102080 65
2009-06-17 08:42:01 51°15.423 2°49.184 6.5 286 18.5 102080 65
2009-06-17 08:42:06 51°15.426 2°49.16 8.5 237 18.5 102080 65
2009-06-17 08:42:11 51°15.43 2°49.136 7.2 284 18.5 102080 66
2009-06-17 08:42:16 51°15.434 2°49.111 8.2 37 18.5 102080 66
2009-06-17 08:42:21 51°15.438 2°49.087 7 284 18.5 102080 66
2009-06-17 08:42:26 51°15.442 2°49.063 8.2 236 18.5 102080 66
2009-06-17 08:42:31 51°15.447 2°49.039 6.7 23 18.5 102080 66
2009-06-17 08:42:36 51°15.451 2°49.015 6.5 35 18.5 102080 66
2009-06-17 08:42:41 51°15.455 2°48.99 6.9 280 18.5 102080 66
2009-06-17 08:42:46 51°15.459 2°48.966 6.8 236 18.5 102080 66
2009-06-17 08:42:51 51°15.463 2°48.942 8.5 285 18.5 102080 67
2009-06-17 08:42:56 51°15.467 2°48.918 6.5 33 18.5 102080 67
2009-06-17 08:43:01 51°15.471 2°48.894 8.2 277 18.5 102080 67
2009-06-17 08:43:06 51°15.474 2°48.87 7.6 234 18.5 102080 67
2009-06-17 08:43:11 51°15.478 2°48.845 8.2 277 18.5 102080 67
2009-06-17 08:43:16 51°15.481 2°48.821 6.7 235 18.5 102080 67
2009-06-17 08:43:21 51°15.485 2°48.797 7.8 279 18.5 102080 66
2009-06-17 08:43:26 51°15.488 2°48.772 7.9 234 18.5 102080 66
2009-06-17 08:43:31 51°15.492 2°48.748 7.9 24 18.5 102070 66
2009-06-17 08:43:36 51°15.496 2°48.724 8.1 33 18.5 102070 66
2009-06-17 08:43:41 51°15.499 2°48.699 7.3 278 18.5 102080 66
2009-06-17 08:43:46 51°15.503 2°48.675 7.1 236 18.5 102080 66
2009-06-17 08:43:51 51°15.507 2°48.651 8.6 280 18.5 102070 66
2009-06-17 08:43:56 51°15.511 2°48.627 8.5 235 18.5 102070 66
2009-06-17 08:44:01 51°15.515 2°48.603 6.5 277 18.5 102070 67
2009-06-17 08:44:06 51°15.519 2°48.578 8 232 18.5 102070 67
2009-06-17 08:44:11 51°15.523 2°48.554 7.9 278 18.5 102070 67
2009-06-17 08:44:16 51°15.527 2°48.53 7.8 234 18.5 102070 67
2009-06-17 08:44:21 51°15.531 2°48.505 8.1 284 18.5 102070 66
2009-06-17 08:44:26 51°15.535 2°48.481 8.2 34 18.5 102070 66
2009-06-17 08:44:31 51°15.539 2°48.456 8.5 27 18.5 102070 66
2009-06-17 08:44:36 51°15.543 2°48.432 6.5 235 18.5 102070 66
2009-06-17 08:44:41 51°15.547 2°48.408 5.8 278 18.5 102080 67
2009-06-17 08:44:46 51°15.553 2°48.385 8.3 238 18.5 102080 67
2009-06-17 08:44:51 51°15.558 2°48.361 8.1 285 18.5 102080 67
2009-06-17 08:44:56 51°15.564 2°48.338 6.8 33 18.5 102080 67
2009-06-17 08:45:01 51°15.57 2°48.315 7.1 285 18.5 102080 66
2009-06-17 08:45:06 51°15.577 2°48.292 6.3 240 18.5 102080 66
2009-06-17 08:45:11 51°15.583 2°48.269 5.8 284 18.5 102070 66
2009-06-17 08:45:16 51°15.59 2°48.246 7.6 239 18.5 102070 66
2009-06-17 08:45:21 51°15.597 2°48.223 6 280 18.4 102080 66
2009-06-17 08:45:26 51°15.604 2°48.201 5.9 238 18.4 102080 66
2009-06-17 08:45:31 51°15.611 2°48.178 7.1 21 18.4 102070 66
2009-06-17 08:45:36 51°15.618 2°48.155 6 239 18.4 102070 66
2009-06-17 08:45:41 51°15.626 2°48.132 7 277 18.5 102070 66
2009-06-17 08:45:46 51°15.633 2°48.11 5.3 238 18.5 102070 66
2009-06-17 08:45:51 51°15.64 2°48.087 5.9 285 18.5 102080 66
2009-06-17 08:45:56 51°15.648 2°48.064 6.8 32 18.5 102080 66
2009-06-17 08:46:01 51°15.655 2°48.042 5.6 283 18.5 102080 66
2009-06-17 08:46:05 51°15.66 2°48.024 6.3 33 18.5 102080 66
2009-06-17 08:46:11 51°15.669 2°47.996 5.6 281 18.5 102070 67
2009-06-17 08:46:16 51°15.676 2°47.973 7.6 237 18.5 102070 67
2009-06-17 08:46:21 51°15.684 2°47.951 7.5 277 18.5 102070 67
2009-06-17 08:46:26 51°15.691 2°47.928 7.1 241 18.5 102070 67
2009-06-17 08:46:31 51°15.698 2°47.905 7.5 21 18.5 102070 67
2009-06-17 08:46:36 51°15.705 2°47.883 6 242 18.5 102070 67
2009-06-17 08:46:41 51°15.713 2°47.86 6.5 283 18.5 102070 67
2009-06-17 08:46:46 51°15.72 2°47.837 7.7 242 18.5 102070 67
2009-06-17 08:46:51 51°15.727 2°47.814 7.6 277 18.5 102070 67
2009-06-17 08:46:56 51°15.735 2°47.792 7.4 240 18.5 102070 67
2009-06-17 08:47:01 51°15.742 2°47.769 7.7 277 18.5 102070 66
2009-06-17 08:47:06 51°15.75 2°47.747 7.4 240 18.5 102070 66
2009-06-17 08:47:11 51°15.757 2°47.724 6.1 280 18.5 102070 66
2009-06-17 08:47:16 51°15.765 2°47.701 7.8 239 18.5 102070 66
2009-06-17 08:47:21 51°15.772 2°47.679 6.5 281 18.5 102070 66
2009-06-17 08:47:26 51°15.78 2°47.657 7.6 236 18.5 102070 66
2009-06-17 08:47:31 51°15.787 2°47.634 6 23 18.5 102070 66
2009-06-17 08:47:36 51°15.795 2°47.611 7.5 240 18.5 102070 66
2009-06-17 08:47:41 51°15.803 2°47.589 6.1 279 18.5 102070 66
2009-06-17 08:47:46 51°15.81 2°47.566 5.9 242 18.5 102070 66
2009-06-17 08:47:51 51°15.818 2°47.544 7.4 282 18.5 102070 66
2009-06-17 08:47:56 51°15.825 2°47.521 6.8 238 18.5 102070 66
2009-06-17 08:48:01 51°15.833 2°47.499 6.4 286 18.5 102070 66
2009-06-17 08:48:06 51°15.84 2°47.476 5.7 240 18.5 102070 66
2009-06-17 08:48:11 51°15.847 2°47.454 6.8 285 18.5 102070 66
2009-06-17 08:48:16 51°15.854 2°47.431 7.2 237 18.5 102070 66
2009-06-17 08:48:21 51°15.861 2°47.408 6.7 277 18.5 102070 67
2009-06-17 08:48:26 51°15.868 2°47.385 5.3 32 18.5 102070 67
2009-06-17 08:48:31 51°15.876 2°47.363 6.7 20 18.5 102070 66
2009-06-17 08:48:36 51°15.883 2°47.34 5.8 241 18.5 102070 66
2009-06-17 08:48:41 51°15.89 2°47.317 7.1 279 18.5 102070 66
2009-06-17 08:48:46 51°15.897 2°47.294 6.1 240 18.5 102070 66
2009-06-17 08:48:51 51°15.904 2°47.272 7.4 279 18.5 102070 67
2009-06-17 08:48:56 51°15.911 2°47.249 5.6 239 18.5 102070 67
2009-06-17 08:49:01 51°15.918 2°47.226 6 285 18.5 102060 67
2009-06-17 08:49:05 51°15.924 2°47.208 5.7 240 18.5 102060 67
2009-06-17 08:49:11 51°15.933 2°47.181 5.8 278 18.5 102070 67
2009-06-17 08:49:16 51°15.94 2°47.158 7.5 240 18.5 102070 67
2009-06-17 08:49:21 51°15.948 2°47.136 7.3 284 18.5 102070 67
2009-06-17 08:49:26 51°15.955 2°47.113 5.9 240 18.5 102070 67
2009-06-17 08:49:31 51°15.962 2°47.09 7.1 240 18.5 102070 67
2009-06-17 08:49:36 51°15.969 2°47.067 5.7 240 18.5 102070 67
2009-06-17 08:49:41 51°15.977 2°47.045 7 284 18.5 102070 67
2009-06-17 08:49:46 51°15.984 2°47.022 7.5 239 18.5 102070 67
2009-06-17 08:49:51 51°15.991 2°46.999 6.2 278 18.5 102070 67
2009-06-17 08:49:56 51°15.999 2°46.977 6.5 241 18.5 102070 67
2009-06-17 08:50:01 51°16.006 2°46.954 6.2 283 18.5 102070 67
2009-06-17 08:50:06 51°16.013 2°46.931 7.6 241 18.5 102070 67
2009-06-17 08:50:11 51°16.02 2°46.909 6.8 278 18.5 102060 66
2009-06-17 08:50:16 51°16.028 2°46.886 7.9 242 18.5 102060 66
2009-06-17 08:50:21 51°16.035 2°46.864 7.4 279 18.5 102060 66
2009-06-17 08:50:26 51°16.042 2°46.841 6.2 243 18.5 102060 66
2009-06-17 08:50:31 51°16.049 2°46.818 7.1 27 18.5 102060 66
2009-06-17 08:50:36 51°16.057 2°46.796 5.9 241 18.5 102060 66
2009-06-17 08:50:41 51°16.063 2°46.773 5.5 285 18.5 102060 66
2009-06-17 08:50:46 51°16.071 2°46.751 7 242 18.5 102060 66
2009-06-17 08:50:51 51°16.077 2°46.728 6.8 280 18.5 102060 66
2009-06-17 08:50:56 51°16.085 2°46.705 7.1 242 18.5 102060 66
2009-06-17 08:51:01 51°16.092 2°46.683 7 284 18.5 102060 66
2009-06-17 08:51:06 51°16.099 2°46.66 7.8 243 18.5 102060 66
2009-06-17 08:51:11 51°16.106 2°46.637 6.9 22 18.6 102060 66
2009-06-17 08:51:16 51°16.113 2°46.614 6 242 18.6 102060 66
2009-06-17 08:51:21 51°16.12 2°46.592 6.9 282 18.5 102060 66
2009-06-17 08:51:26 51°16.128 2°46.569 5.8 244 18.5 102060 66
2009-06-17 08:51:31 51°16.135 2°46.547 5.9 245 18.5 102060 66
2009-06-17 08:51:36 51°16.143 2°46.524 5.9 243 18.5 102060 66
2009-06-17 08:51:41 51°16.15 2°46.502 6.6 278 18.5 102070 66
2009-06-17 08:51:46 51°16.158 2°46.479 5.9 245 18.5 102070 66
2009-06-17 08:51:51 51°16.165 2°46.457 7 26 18.6 102060 66
2009-06-17 08:51:56 51°16.172 2°46.435 6.9 241 18.6 102060 66
2009-06-17 08:52:01 51°16.18 2°46.413 6.4 243 18.6 102060 67
2009-06-17 08:52:06 51°16.186 2°46.39 6.8 239 18.6 102060 67
2009-06-17 08:52:11 51°16.194 2°46.368 6.4 21 18.5 102060 66
2009-06-17 08:52:16 51°16.2 2°46.345 6 242 18.5 102060 66
2009-06-17 08:52:21 51°16.208 2°46.323 5.3 20 18.6 102070 67
2009-06-17 08:52:26 51°16.215 2°46.3 6.1 242 18.6 102070 67
2009-06-17 08:52:31 51°16.223 2°46.278 5.5 23 18.6 102060 67
2009-06-17 08:52:36 51°16.23 2°46.255 5.6 239 18.6 102060 67
2009-06-17 08:52:41 51°16.238 2°46.233 6.1 22 18.6 102060 67
2009-06-17 08:52:45 51°16.243 2°46.215 5.6 240 18.6 102060 67
2009-06-17 08:52:51 51°16.251 2°46.187 5.9 281 18.6 102070 67
2009-06-17 08:52:56 51°16.259 2°46.165 5.9 243 18.6 102070 67
2009-06-17 08:53:01 51°16.265 2°46.142 5.5 23 18.6 102060 68
2009-06-17 08:53:06 51°16.272 2°46.119 7 241 18.6 102060 68
2009-06-17 08:53:11 51°16.279 2°46.096 6 21 18.6 102050 68
2009-06-17 08:53:16 51°16.287 2°46.073 5.6 240 18.6 102050 68
2009-06-17 08:53:21 51°16.294 2°46.05 5.4 27 18.6 102060 68
2009-06-17 08:53:25 51°16.3 2°46.032 5.5 243 18.6 102060 68
2009-06-17 08:53:31 51°16.308 2°46.005 5.3 28 18.6 102060 68
2009-06-17 08:53:36 51°16.316 2°45.982 5.7 243 18.6 102060 68
2009-06-17 08:53:41 51°16.323 2°45.96 6.5 244 18.5 102060 68
2009-06-17 08:53:46 51°16.331 2°45.937 5.5 243 18.5 102060 68
2009-06-17 08:53:51 51°16.339 2°45.915 6.4 26 18.5 102060 68
2009-06-17 08:53:56 51°16.348 2°45.893 6.4 241 18.5 102060 68
2009-06-17 08:54:01 51°16.356 2°45.87 5.1 281 18.5 102060 67
2009-06-17 08:54:06 51°16.364 2°45.849 5.9 241 18.5 102060 67
2009-06-17 08:54:11 51°16.373 2°45.826 6.4 28 18.5 102060 68
2009-06-17 08:54:16 51°16.381 2°45.804 4.9 240 18.5 102060 68
2009-06-17 08:54:21 51°16.39 2°45.782 5.3 278 18.5 102060 67
2009-06-17 08:54:26 51°16.398 2°45.76 5.7 239 18.5 102060 67
2009-06-17 08:54:31 51°16.407 2°45.738 5 24 18.5 102070 68
2009-06-17 08:54:36 51°16.416 2°45.716 6 240 18.5 102070 68
2009-06-17 08:54:41 51°16.425 2°45.694 5.9 30 18.5 102070 68
2009-06-17 08:54:45 51°16.432 2°45.677 6.8 244 18.5 102070 68
2009-06-17 08:54:51 51°16.442 2°45.65 5.7 26 18.5 102060 68
2009-06-17 08:54:56 51°16.451 2°45.628 6.7 240 18.5 102060 68
2009-06-17 08:55:01 51°16.46 2°45.606 5.3 27 18.5 102060 67
2009-06-17 08:55:05 51°16.467 2°45.588 5 240 18.5 102060 67
2009-06-17 08:55:11 51°16.477 2°45.561 5.6 285 18.5 102050 67
2009-06-17 08:55:16 51°16.485 2°45.539 6.4 241 18.5 102050 67
2009-06-17 08:55:21 51°16.494 2°45.517 5.6 22 18.5 102050 67
2009-06-17 08:55:26 51°16.502 2°45.494 5.5 240 18.5 102050 67
2009-06-17 08:55:31 51°16.51 2°45.472 5.9 27 18.5 102060 68
2009-06-17 08:55:36 51°16.518 2°45.449 5.7 241 18.5 102060 68
2009-06-17 08:55:41 51°16.526 2°45.427 6.3 22 18.5 102060 68
2009-06-17 08:55:46 51°16.535 2°45.404 5.6 240 18.5 102060 68
2009-06-17 08:55:51 51°16.543 2°45.382 6.3 241 18.4 102050 68
2009-06-17 08:55:56 51°16.551 2°45.36 6.4 241 18.4 102050 68
2009-06-17 08:56:01 51°16.56 2°45.337 6.4 280 18.4 102050 68
2009-06-17 08:56:06 51°16.568 2°45.315 6 242 18.4 102050 68
2009-06-17 08:56:11 51°16.576 2°45.292 6.6 26 18.5 102050 68
2009-06-17 08:56:16 51°16.584 2°45.27 5.5 242 18.5 102050 68
2009-06-17 08:56:21 51°16.593 2°45.248 6.7 284 18.5 102050 68
2009-06-17 08:56:26 51°16.601 2°45.225 4.9 243 18.5 102050 68
2009-06-17 08:56:31 51°16.609 2°45.203 5.3 242 18.5 102050 68
2009-06-17 08:56:36 51°16.617 2°45.181 6 243 18.5 102050 68
2009-06-17 08:56:41 51°16.626 2°45.159 6 20 18.5 102060 68
2009-06-17 08:56:45 51°16.633 2°45.141 6.3 240 18.5 102060 68
2009-06-17 08:56:51 51°16.643 2°45.115 6.1 284 18.5 102060 68
2009-06-17 08:56:56 51°16.652 2°45.093 6 241 18.5 102060 68
2009-06-17 08:57:01 51°16.661 2°45.071 4.5 20 18.5 102060 68
2009-06-17 08:57:06 51°16.67 2°45.049 6.5 243 18.5 102060 68
2009-06-17 08:57:11 51°16.678 2°45.027 5.1 279 18.5 102050 68
2009-06-17 08:57:16 51°16.687 2°45.005 6.2 242 18.5 102050 68
2009-06-17 08:57:21 51°16.695 2°44.982 5.4 28 18.5 102050 68
2009-06-17 08:57:25 51°16.702 2°44.965 6.1 241 18.5 102050 68
2009-06-17 08:57:31 51°16.712 2°44.938 6.2 25 18.4 102050 68
2009-06-17 08:57:36 51°16.721 2°44.916 6.2 243 18.4 102050 68
2009-06-17 08:57:41 51°16.729 2°44.894 5.4 24 18.5 102060 68
2009-06-17 08:57:46 51°16.738 2°44.871 5.9 241 18.5 102060 68
2009-06-17 08:57:51 51°16.747 2°44.849 4.7 22 18.4 102050 68
2009-06-17 08:57:56 51°16.755 2°44.827 5.1 242 18.4 102050 68
2009-06-17 08:58:01 51°16.764 2°44.805 5.7 22 18.5 102050 68
2009-06-17 08:58:06 51°16.773 2°44.782 4.7 243 18.5 102050 68
2009-06-17 08:58:11 51°16.781 2°44.76 4.9 28 18.5 102060 68
2009-06-17 08:58:16 51°16.79 2°44.737 6 242 18.5 102060 68
2009-06-17 08:58:21 51°16.799 2°44.715 4.8 285 18.5 102050 68
2009-06-17 08:58:26 51°16.807 2°44.692 5 243 18.5 102050 68
2009-06-17 08:58:31 51°16.816 2°44.67 4.7 27 18.5 102050 68
2009-06-17 08:58:36 51°16.824 2°44.647 5.7 241 18.5 102050 68
2009-06-17 08:58:41 51°16.833 2°44.625 5.8 26 18.5 102050 68
2009-06-17 08:58:45 51°16.84 2°44.607 6 243 18.5 102050 68
2009-06-17 08:58:51 51°16.85 2°44.58 6.3 26 18.5 102050 68
2009-06-17 08:58:56 51°16.858 2°44.557 5.6 242 18.5 102050 68
2009-06-17 08:59:01 51°16.867 2°44.535 5.5 26 18.5 102050 68
2009-06-17 08:59:05 51°16.874 2°44.517 6.3 242 18.5 102050 68
2009-06-17 08:59:11 51°16.884 2°44.49 5.9 286 18.5 102050 68
2009-06-17 08:59:16 51°16.893 2°44.468 6.4 243 18.5 102050 68
2009-06-17 08:59:21 51°16.901 2°44.445 5.6 242 18.5 102050 68
2009-06-17 08:59:26 51°16.91 2°44.422 4.8 239 18.5 102050 68
2009-06-17 08:59:31 51°16.918 2°44.4 5.8 25 18.5 102050 68
2009-06-17 08:59:36 51°16.926 2°44.377 5.7 241 18.5 102050 68
2009-06-17 08:59:41 51°16.935 2°44.355 5.6 27 18.5 102050 69
2009-06-17 08:59:45 51°16.941 2°44.337 5.8 239 18.5 102050 69
2009-06-17 08:59:51 51°16.951 2°44.31 5.7 284 18.5 102050 69
2009-06-17 08:59:56 51°16.959 2°44.287 4.9 237 18.5 102050 69
2009-06-17 09:00:01 51°16.967 2°44.264 5.7 29 18.5 102060 69
2009-06-17 09:00:06 51°16.974 2°44.241 5.8 239 18.5 102060 69
2009-06-17 09:00:11 51°16.983 2°44.219 5.8 29 18.5 102050 69
2009-06-17 09:00:16 51°16.991 2°44.197 5.3 239 18.5 102050 69
2009-06-17 09:00:21 51°16.999 2°44.174 4.9 24 18.5 102050 69
2009-06-17 09:00:26 51°17.007 2°44.152 5.6 240 18.5 102050 69
2009-06-17 09:00:31 51°17.015 2°44.129 6 26 18.5 102050 69
2009-06-17 09:00:36 51°17.023 2°44.106 5.2 239 18.5 102050 69
2009-06-17 09:00:41 51°17.032 2°44.084 5.1 284 18.5 102040 69
2009-06-17 09:00:46 51°17.04 2°44.061 6.4 242 18.5 102040 69
2009-06-17 09:00:51 51°17.048 2°44.039 6.1 24 18.5 102050 69
2009-06-17 09:00:56 51°17.056 2°44.016 5.5 242 18.5 102050 69
2009-06-17 09:01:01 51°17.064 2°43.994 6.8 25 18.5 102050 69
2009-06-17 09:01:05 51°17.071 2°43.976 5.5 243 18.5 102050 69
2009-06-17 09:01:11 51°17.081 2°43.949 5 28 18.5 102040 69
2009-06-17 09:01:16 51°17.089 2°43.926 6.4 241 18.5 102040 69
2009-06-17 09:01:21 51°17.097 2°43.904 5.7 244 18.5 102050 69
2009-06-17 09:01:25 51°17.103 2°43.886 6.9 246 18.5 102050 69
2009-06-17 09:01:31 51°17.113 2°43.859 5.3 27 18.5 102050 69
2009-06-17 09:01:36 51°17.121 2°43.836 6.8 240 18.5 102050 69
2009-06-17 09:01:41 51°17.129 2°43.813 4.9 28 18.5 102050 69
2009-06-17 09:01:46 51°17.137 2°43.79 6 32 18.5 102050 69
2009-06-17 09:01:51 51°17.145 2°43.768 4.8 279 18.5 102050 69
2009-06-17 09:01:56 51°17.153 2°43.746 6 240 18.5 102050 69
2009-06-17 09:02:01 51°17.162 2°43.723 4.9 20 18.5 102050 69
2009-06-17 09:02:06 51°17.17 2°43.7 5.5 239 18.5 102050 69
2009-06-17 09:02:11 51°17.178 2°43.677 6.3 279 18.5 102050 69
2009-06-17 09:02:16 51°17.186 2°43.655 3.3 241 18.5 102050 69
2009-06-17 09:02:21 51°17.195 2°43.632 4.9 21 18.5 102050 69
2009-06-17 09:02:26 51°17.203 2°43.61 5.2 239 18.5 102050 69
2009-06-17 09:02:31 51°17.211 2°43.587 6.1 30 18.5 102050 69
2009-06-17 09:02:36 51°17.22 2°43.565 6.2 236 18.5 102050 69
2009-06-17 09:02:41 51°17.228 2°43.543 5.3 24 18.5 102050 70
2009-06-17 09:02:45 51°17.235 2°43.525 5.9 237 18.5 102050 70
2009-06-17 09:02:51 51°17.245 2°43.498 6.3 30 18.5 102050 70
2009-06-17 09:02:56 51°17.253 2°43.475 4.9 238 18.5 102050 70
2009-06-17 09:03:01 51°17.262 2°43.453 5.6 25 18.5 102050 70
2009-06-17 09:03:06 51°17.27 2°43.43 5.9 238 18.5 102050 70
2009-06-17 09:03:11 51°17.278 2°43.407 4.8 22 18.5 102050 70
2009-06-17 09:03:16 51°17.287 2°43.385 6 241 18.5 102050 70
2009-06-17 09:03:21 51°17.295 2°43.362 6.4 28 18.4 102050 70
2009-06-17 09:03:25 51°17.301 2°43.344 6.3 239 18.4 102050 70
2009-06-17 09:03:31 51°17.311 2°43.317 5.8 27 18.4 102040 70
2009-06-17 09:03:36 51°17.319 2°43.295 4.7 239 18.4 102040 70
2009-06-17 09:03:41 51°17.327 2°43.272 6 278 18.4 102040 70
2009-06-17 09:03:46 51°17.335 2°43.25 4.6 243 18.4 102040 70
2009-06-17 09:03:51 51°17.343 2°43.227 5.2 242 18.4 102040 70
2009-06-17 09:03:56 51°17.352 2°43.205 5.5 241 18.4 102040 70
2009-06-17 09:04:01 51°17.359 2°43.182 6.2 21 18.4 102040 70
2009-06-17 09:04:06 51°17.368 2°43.16 4.8 239 18.4 102040 70
2009-06-17 09:04:11 51°17.376 2°43.137 4.7 281 18.4 102050 70
2009-06-17 09:04:16 51°17.385 2°43.115 5.3 239 18.4 102050 70
2009-06-17 09:04:21 51°17.393 2°43.093 4.8 27 18.4 102050 70
2009-06-17 09:04:26 51°17.402 2°43.07 5.5 239 18.4 102050 70
2009-06-17 09:04:32 51°17.411 2°43.043 5.4 22 18.4 102040 70
2009-06-17 09:04:36 51°17.418 2°43.025 6 240 18.4 102040 70
2009-06-17 09:04:41 51°17.427 2°43.003 5.9 22 18.4 102040 71
2009-06-17 09:04:46 51°17.435 2°42.981 5.3 240 18.4 102040 71
2009-06-17 09:04:51 51°17.444 2°42.958 4.9 22 18.4 102040 71
2009-06-17 09:04:57 51°17.454 2°42.932 5.2 241 18.4 102040 71
2009-06-17 09:05:01 51°17.46 2°42.914 5.9 23 18.4 102040 70
2009-06-17 09:05:05 51°17.467 2°42.897 4.5 240 18.4 102040 70
2009-06-17 09:05:11 51°17.477 2°42.87 5.5 26 18.4 102050 71
2009-06-17 09:05:16 51°17.485 2°42.848 4.6 238 18.4 102050 71
2009-06-17 09:05:21 51°17.493 2°42.825 4.8 277 18.4 102050 71
2009-06-17 09:05:26 51°17.501 2°42.802 4.4 238 18.4 102050 71
2009-06-17 09:05:31 51°17.51 2°42.78 5.1 27 18.4 102050 70
2009-06-17 09:05:36 51°17.517 2°42.757 4.3 237 18.4 102050 70
2009-06-17 09:05:41 51°17.526 2°42.735 4.7 29 18.4 102040 71
2009-06-17 09:05:46 51°17.534 2°42.712 5.6 240 18.4 102040 71
2009-06-17 09:05:51 51°17.543 2°42.69 4.2 279 18.4 102050 70
2009-06-17 09:05:56 51°17.552 2°42.668 4.2 237 18.4 102050 70
2009-06-17 09:06:01 51°17.561 2°42.646 5.2 23 18.4 102040 70
2009-06-17 09:06:06 51°17.569 2°42.624 4.7 241 18.4 102040 70
2009-06-17 09:06:11 51°17.578 2°42.601 5.3 279 18.4 102040 71
2009-06-17 09:06:16 51°17.585 2°42.578 5.6 33 18.4 102040 71
2009-06-17 09:06:21 51°17.594 2°42.556 4.1 242 18.4 102050 70
2009-06-17 09:06:25 51°17.6 2°42.537 4.9 240 18.4 102050 70
2009-06-17 09:06:31 51°17.61 2°42.51 5.7 27 18.4 102040 70
2009-06-17 09:06:36 51°17.617 2°42.487 5.5 239 18.4 102040 70
2009-06-17 09:06:41 51°17.625 2°42.465 5.6 22 18.4 102030 70
2009-06-17 09:06:46 51°17.633 2°42.442 4.8 239 18.4 102030 70
2009-06-17 09:06:51 51°17.641 2°42.419 4.2 280 18.4 102040 70
2009-06-17 09:06:56 51°17.648 2°42.396 5 239 18.4 102040 70
2009-06-17 09:07:01 51°17.656 2°42.373 4.8 282 18.4 102040 70
2009-06-17 09:07:05 51°17.662 2°42.355 6 239 18.4 102040 70
2009-06-17 09:07:11 51°17.672 2°42.327 5.1 25 18.4 102040 70
2009-06-17 09:07:16 51°17.679 2°42.304 6.1 240 18.4 102040 70
2009-06-17 09:07:21 51°17.686 2°42.281 5.9 28 18.4 102040 70
2009-06-17 09:07:26 51°17.693 2°42.258 6.2 238 18.4 102040 70
2009-06-17 09:07:31 51°17.7 2°42.234 5.2 27 18.4 102040 70
2009-06-17 09:07:36 51°17.707 2°42.211 5.7 238 18.4 102040 70
2009-06-17 09:07:41 51°17.715 2°42.188 4.8 21 18.4 102040 70
2009-06-17 09:07:45 51°17.721 2°42.17 5.8 238 18.4 102040 70
2009-06-17 09:07:51 51°17.73 2°42.143 4.5 27 18.4 102040 70
2009-06-17 09:07:56 51°17.737 2°42.119 6 239 18.4 102040 70
2009-06-17 09:08:01 51°17.745 2°42.097 5.2 27 18.4 102040 70
2009-06-17 09:08:06 51°17.752 2°42.073 4.9 238 18.4 102040 70
2009-06-17 09:08:11 51°17.759 2°42.05 5.8 22 18.4 102040 70
2009-06-17 09:08:16 51°17.766 2°42.027 4.7 236 18.4 102040 70
2009-06-17 09:08:21 51°17.773 2°42.004 5.9 26 18.4 102040 70
2009-06-17 09:08:25 51°17.779 2°41.985 6 238 18.4 102040 70
2009-06-17 09:08:31 51°17.787 2°41.958 4.7 29 18.4 102030 70
2009-06-17 09:08:36 51°17.794 2°41.934 5.7 239 18.4 102030 70
2009-06-17 09:08:41 51°17.802 2°41.911 4.8 277 18.4 102040 70
2009-06-17 09:08:46 51°17.809 2°41.888 6 240 18.4 102040 70
2009-06-17 09:08:51 51°17.817 2°41.865 5.8 21 18.4 102030 70
2009-06-17 09:08:56 51°17.824 2°41.842 6.4 237 18.4 102030 70
2009-06-17 09:09:01 51°17.832 2°41.819 5.2 280 18.4 102030 70
2009-06-17 09:09:06 51°17.839 2°41.796 5.7 239 18.4 102030 70
2009-06-17 09:09:11 51°17.845 2°41.773 5.6 287 18.4 102030 70
2009-06-17 09:09:16 51°17.853 2°41.75 6.3 238 18.4 102030 70
2009-06-17 09:09:21 51°17.86 2°41.726 6.7 278 18.4 102040 70
2009-06-17 09:09:26 51°17.866 2°41.703 4.9 243 18.4 102040 70
2009-06-17 09:09:31 51°17.874 2°41.679 5 20 18.4 102030 70
2009-06-17 09:09:36 51°17.881 2°41.656 4.8 242 18.4 102030 70
2009-06-17 09:09:41 51°17.888 2°41.633 5 277 18.4 102040 70
2009-06-17 09:09:46 51°17.895 2°41.61 6.1 239 18.4 102040 70
2009-06-17 09:09:51 51°17.903 2°41.587 4.7 24 18.4 102030 70
2009-06-17 09:09:56 51°17.91 2°41.563 5.7 240 18.4 102030 70
2009-06-17 09:10:01 51°17.918 2°41.541 4.7 29 18.4 102040 70
2009-06-17 09:10:05 51°17.923 2°41.522 4.9 240 18.4 102040 70
2009-06-17 09:10:11 51°17.932 2°41.494 6 28 18.4 102030 70
2009-06-17 09:10:16 51°17.939 2°41.471 4.6 240 18.4 102030 70
2009-06-17 09:10:21 51°17.947 2°41.448 4.9 284 18.4 102030 70
2009-06-17 09:10:26 51°17.954 2°41.424 5 241 18.4 102030 70
2009-06-17 09:10:31 51°17.961 2°41.401 5 27 18.4 102030 70
2009-06-17 09:10:36 51°17.967 2°41.377 6.1 240 18.4 102030 70
2009-06-17 09:10:41 51°17.974 2°41.354 4.8 26 18.4 102040 70
2009-06-17 09:10:46 51°17.981 2°41.331 6.4 237 18.4 102040 70
2009-06-17 09:10:51 51°17.988 2°41.307 6 277 18.4 102040 70
2009-06-17 09:10:56 51°17.995 2°41.284 6 236 18.4 102040 70
2009-06-17 09:11:01 51°18.002 2°41.261 4.4 27 18.4 102030 70
2009-06-17 09:11:06 51°18.009 2°41.237 5.9 236 18.4 102030 70
2009-06-17 09:11:11 51°18.016 2°41.214 6 284 18.4 102030 70
2009-06-17 09:11:16 51°18.023 2°41.19 6.2 235 18.4 102030 70
2009-06-17 09:11:21 51°18.03 2°41.167 6.2 27 18.4 102040 70
2009-06-17 09:11:26 51°18.037 2°41.144 6.4 30 18.4 102040 70
2009-06-17 09:11:31 51°18.044 2°41.12 4.9 28 18.4 102030 71
2009-06-17 09:11:36 51°18.05 2°41.096 5.6 236 18.4 102030 71
2009-06-17 09:11:41 51°18.058 2°41.073 6.4 284 18.4 102040 71
2009-06-17 09:11:46 51°18.064 2°41.049 5.7 238 18.4 102040 71
2009-06-17 09:11:51 51°18.071 2°41.026 6.2 28 18.4 102030 71
2009-06-17 09:11:57 51°18.079 2°40.998 6.4 32 18.4 102030 71
2009-06-17 09:12:01 51°18.085 2°40.98 4.9 279 18.4 102030 71
2009-06-17 09:12:06 51°18.092 2°40.956 6.2 238 18.4 102030 71
2009-06-17 09:12:11 51°18.099 2°40.933 6.1 22 18.3 102030 71
2009-06-17 09:12:16 51°18.106 2°40.909 6.2 239 18.3 102030 71
2009-06-17 09:12:21 51°18.113 2°40.886 6.1 285 18.3 102030 71
2009-06-17 09:12:26 51°18.119 2°40.863 6.3 238 18.3 102030 71
2009-06-17 09:12:31 51°18.126 2°40.84 5.9 27 18.3 102030 71
2009-06-17 09:12:36 51°18.132 2°40.816 4.9 238 18.3 102030 71
2009-06-17 09:12:41 51°18.139 2°40.793 5.1 29 18.3 102030 71
2009-06-17 09:12:46 51°18.146 2°40.77 5.1 31 18.3 102030 71
2009-06-17 09:12:51 51°18.153 2°40.746 4.6 279 18.3 102030 71
2009-06-17 09:12:56 51°18.159 2°40.723 5 234 18.3 102030 71
2009-06-17 09:13:01 51°18.167 2°40.7 4.4 24 18.3 102030 71
2009-06-17 09:13:06 51°18.173 2°40.676 6.3 233 18.3 102030 71
2009-06-17 09:13:11 51°18.18 2°40.653 5.2 286 18.3 102040 71
2009-06-17 09:13:16 51°18.188 2°40.63 5.4 235 18.3 102040 71
2009-06-17 09:13:21 51°18.194 2°40.607 4.9 281 18.3 102040 71
2009-06-17 09:13:26 51°18.202 2°40.584 6.4 33 18.3 102040 71
2009-06-17 09:13:31 51°18.209 2°40.561 5 27 18.3 102030 72
2009-06-17 09:13:36 51°18.216 2°40.538 5.1 235 18.3 102030 72
2009-06-17 09:13:41 51°18.223 2°40.514 5 282 18.3 102030 71
2009-06-17 09:13:46 51°18.231 2°40.491 5.1 236 18.3 102030 71
2009-06-17 09:13:51 51°18.238 2°40.468 5 22 18.3 102040 71
2009-06-17 09:13:56 51°18.246 2°40.446 6.1 31 18.3 102040 71
2009-06-17 09:14:01 51°18.253 2°40.423 5.7 278 18.3 102030 71
2009-06-17 09:14:06 51°18.261 2°40.401 5.9 37 18.3 102030 71
2009-06-17 09:14:11 51°18.269 2°40.379 6.6 282 18.3 102030 71
2009-06-17 09:14:16 51°18.277 2°40.356 4.8 235 18.3 102030 71
2009-06-17 09:14:21 51°18.285 2°40.334 6.6 284 18.3 102040 71
2009-06-17 09:14:26 51°18.292 2°40.312 5.9 236 18.3 102040 71
2009-06-17 09:14:31 51°18.3 2°40.29 5.3 25 18.3 102040 71
2009-06-17 09:14:36 51°18.307 2°40.267 5.3 237 18.3 102040 71
2009-06-17 09:14:41 51°18.315 2°40.245 5.5 280 18.3 102040 71
2009-06-17 09:14:46 51°18.322 2°40.222 5.8 235 18.3 102040 71
2009-06-17 09:14:51 51°18.33 2°40.2 4.9 23 18.3 102030 71
2009-06-17 09:14:56 51°18.337 2°40.178 5.1 233 18.3 102030 71
2009-06-17 09:15:01 51°18.345 2°40.156 5.7 24 18.3 102030 71
2009-06-17 09:15:05 51°18.351 2°40.138 5.7 235 18.3 102030 71
2009-06-17 09:15:11 51°18.361 2°40.112 4.9 277 18.3 102040 71
2009-06-17 09:15:16 51°18.368 2°40.09 5.2 237 18.3 102040 71
2009-06-17 09:15:21 51°18.376 2°40.068 5.3 279 18.3 102030 72
2009-06-17 09:15:26 51°18.384 2°40.045 6.3 31 18.3 102030 72
2009-06-17 09:15:31 51°18.391 2°40.023 3.3 22 18.3 102040 71
2009-06-17 09:15:36 51°18.399 2°40.001 6.4 238 18.3 102040 71
2009-06-17 09:15:41 51°18.407 2°39.978 6.3 279 18.3 102030 71
2009-06-17 09:15:46 51°18.414 2°39.956 6.3 237 18.3 102030 71
2009-06-17 09:15:51 51°18.422 2°39.933 6.5 280 18.2 102030 71
2009-06-17 09:15:56 51°18.43 2°39.911 6.1 236 18.2 102030 71
2009-06-17 09:16:01 51°18.438 2°39.889 5.8 283 18.2 102030 71
2009-06-17 09:16:06 51°18.446 2°39.867 5.2 238 18.2 102030 71
2009-06-17 09:16:11 51°18.453 2°39.845 6.5 22 18.2 102040 71
2009-06-17 09:16:16 51°18.461 2°39.822 6.2 35 18.2 102040 71
2009-06-17 09:16:21 51°18.469 2°39.8 5.4 277 18.2 102030 71
2009-06-17 09:16:26 51°18.477 2°39.778 6 235 18.2 102030 71
2009-06-17 09:16:31 51°18.484 2°39.756 6.7 28 18.2 102030 71
2009-06-17 09:16:36 51°18.493 2°39.734 5.5 236 18.2 102030 71
2009-06-17 09:16:41 51°18.5 2°39.711 5.2 25 18.2 102040 71
2009-06-17 09:16:45 51°18.506 2°39.694 5 233 18.2 102040 71
2009-06-17 09:16:51 51°18.516 2°39.668 4.9 27 18.2 102030 71
2009-06-17 09:16:56 51°18.524 2°39.646 5.3 237 18.2 102030 71
2009-06-17 09:17:01 51°18.532 2°39.624 6.1 27 18.2 102040 71
2009-06-17 09:17:06 51°18.54 2°39.602 5.7 32 18.2 102040 71
2009-06-17 09:17:11 51°18.548 2°39.58 4.8 26 18.2 102030 71
2009-06-17 09:17:16 51°18.556 2°39.558 6 33 18.2 102030 71
2009-06-17 09:17:21 51°18.565 2°39.537 4.8 27 18.3 102030 71
2009-06-17 09:17:25 51°18.571 2°39.519 4.9 236 18.3 102030 71
2009-06-17 09:17:31 51°18.581 2°39.492 6.4 28 18.2 102040 71
2009-06-17 09:17:36 51°18.589 2°39.471 6 237 18.2 102040 71
2009-06-17 09:17:41 51°18.597 2°39.449 5 21 18.3 102030 71
2009-06-17 09:17:46 51°18.606 2°39.427 5.9 235 18.3 102030 71
2009-06-17 09:17:51 51°18.614 2°39.405 6.2 281 18.2 102030 71
2009-06-17 09:17:56 51°18.623 2°39.383 4.8 234 18.2 102030 71
2009-06-17 09:18:01 51°18.63 2°39.36 4.6 278 18.2 102030 71
2009-06-17 09:18:05 51°18.637 2°39.343 5.9 235 18.2 102030 71
2009-06-17 09:18:11 51°18.647 2°39.316 4.7 30 18.3 102040 71
2009-06-17 09:18:16 51°18.655 2°39.294 5.3 233 18.3 102040 71
2009-06-17 09:18:21 51°18.664 2°39.273 4.8 279 18.3 102040 72
2009-06-17 09:18:26 51°18.672 2°39.251 4.7 236 18.3 102040 72
2009-06-17 09:18:31 51°18.681 2°39.229 6 27 18.2 102030 71
2009-06-17 09:18:36 51°18.69 2°39.207 5.8 35 18.2 102030 71
2009-06-17 09:18:41 51°18.698 2°39.186 4.9 278 18.3 102040 72
2009-06-17 09:18:45 51°18.705 2°39.168 4.7 232 18.3 102040 72
2009-06-17 09:18:51 51°18.716 2°39.142 5.9 30 18.2 102030 72
2009-06-17 09:18:56 51°18.724 2°39.12 5 32 18.2 102030 72
2009-06-17 09:19:01 51°18.732 2°39.098 6 279 18.2 102030 72
2009-06-17 09:19:06 51°18.74 2°39.076 4.8 234 18.2 102030 72
2009-06-17 09:19:11 51°18.748 2°39.054 5.8 25 18.3 102030 72
2009-06-17 09:19:16 51°18.756 2°39.031 5.8 33 18.3 102030 72
2009-06-17 09:19:21 51°18.764 2°39.009 5.2 279 18.2 102030 72
2009-06-17 09:19:26 51°18.771 2°38.986 6.3 235 18.2 102030 72
2009-06-17 09:19:31 51°18.779 2°38.964 6.2 29 18.3 102030 72
2009-06-17 09:19:36 51°18.786 2°38.941 5 235 18.3 102030 72
2009-06-17 09:19:41 51°18.794 2°38.919 4.8 24 18.2 102030 72
2009-06-17 09:19:46 51°18.801 2°38.896 5.1 237 18.2 102030 72
2009-06-17 09:19:51 51°18.809 2°38.873 5 283 18.2 102030 72
2009-06-17 09:19:56 51°18.817 2°38.851 5.2 33 18.2 102030 72
2009-06-17 09:20:01 51°18.824 2°38.828 6.3 30 18.2 102030 72
2009-06-17 09:20:06 51°18.831 2°38.805 4.9 36 18.2 102030 72
2009-06-17 09:20:11 51°18.839 2°38.783 5.8 279 18.2 102030 72
2009-06-17 09:20:16 51°18.847 2°38.76 5.3 34 18.2 102030 72
2009-06-17 09:20:21 51°18.854 2°38.737 6.3 283 18.2 102030 73
2009-06-17 09:20:26 51°18.862 2°38.715 6.1 234 18.2 102030 73
2009-06-17 09:20:31 51°18.869 2°38.692 4.9 26 18.2 102030 73
2009-06-17 09:20:36 51°18.877 2°38.67 5.1 34 18.2 102030 73
2009-06-17 09:20:41 51°18.884 2°38.646 6.2 279 18.2 102030 73
2009-06-17 09:20:46 51°18.892 2°38.624 4.9 232 18.2 102030 73
2009-06-17 09:20:51 51°18.9 2°38.602 5.8 25 18.2 102020 73
2009-06-17 09:20:56 51°18.908 2°38.579 4.7 233 18.2 102020 73
2009-06-17 09:21:01 51°18.916 2°38.557 4.7 286 18.2 102030 73
2009-06-17 09:21:06 51°18.924 2°38.534 4.8 236 18.2 102030 73
2009-06-17 09:21:11 51°18.932 2°38.512 5.9 28 18.2 102030 73
2009-06-17 09:21:16 51°18.939 2°38.489 4.7 235 18.2 102030 73
2009-06-17 09:21:21 51°18.947 2°38.466 5.7 285 18.2 102030 73
2009-06-17 09:21:26 51°18.955 2°38.444 5.1 34 18.2 102030 73
2009-06-17 09:21:31 51°18.963 2°38.421 5.2 25 18.2 102030 73
2009-06-17 09:21:36 51°18.97 2°38.398 5.1 238 18.2 102030 73
2009-06-17 09:21:41 51°18.977 2°38.375 6.9 22 18.2 102030 73
2009-06-17 09:21:46 51°18.984 2°38.352 5 237 18.2 102030 73
2009-06-17 09:21:51 51°18.992 2°38.329 6 282 18.1 102030 73
2009-06-17 09:21:56 51°18.999 2°38.306 6.4 237 18.1 102030 73
2009-06-17 09:22:01 51°19.005 2°38.282 5.5 278 18.1 102030 73
2009-06-17 09:22:06 51°19.012 2°38.259 6.3 238 18.1 102030 73
2009-06-17 09:22:11 51°19.019 2°38.235 6.2 282 18.1 102030 73
2009-06-17 09:22:16 51°19.025 2°38.211 6.9 239 18.1 102030 73
2009-06-17 09:22:21 51°19.032 2°38.187 6.5 283 18.1 102030 73
2009-06-17 09:22:26 51°19.039 2°38.164 6.5 236 18.1 102030 73
2009-06-17 09:22:31 51°19.046 2°38.14 5.4 30 18.1 102030 73
2009-06-17 09:22:36 51°19.054 2°38.117 5.9 237 18.1 102030 73
2009-06-17 09:22:41 51°19.06 2°38.093 5.2 282 18.1 102030 72
2009-06-17 09:22:46 51°19.068 2°38.069 5.5 237 18.1 102030 72
2009-06-17 09:22:51 51°19.074 2°38.046 6.5 283 18.1 102030 73
2009-06-17 09:22:56 51°19.081 2°38.022 6.6 238 18.1 102030 73
2009-06-17 09:23:01 51°19.088 2°37.998 5.4 280 18.1 102030 73
2009-06-17 09:23:06 51°19.095 2°37.974 6.2 31 18.1 102030 73
2009-06-17 09:23:11 51°19.102 2°37.951 6.7 279 18.1 102030 73
2009-06-17 09:23:16 51°19.109 2°37.927 6.1 237 18.1 102030 73
2009-06-17 09:23:21 51°19.116 2°37.904 6.1 279 18.1 102030 73
2009-06-17 09:23:26 51°19.124 2°37.88 6.2 237 18.1 102030 73
2009-06-17 09:23:31 51°19.131 2°37.856 5.5 25 18.1 102030 73
2009-06-17 09:23:36 51°19.138 2°37.833 6 238 18.1 102030 73
2009-06-17 09:23:41 51°19.145 2°37.809 6.1 279 18.1 102030 73
2009-06-17 09:23:46 51°19.152 2°37.786 6.5 239 18.1 102030 73
2009-06-17 09:23:51 51°19.159 2°37.762 6.6 23 18.1 102040 73
2009-06-17 09:23:56 51°19.166 2°37.739 5 239 18.1 102040 73
2009-06-17 09:24:01 51°19.173 2°37.716 6.5 286 18.1 102040 72
2009-06-17 09:24:06 51°19.18 2°37.692 5.3 31 18.1 102040 72
2009-06-17 09:24:11 51°19.187 2°37.669 4.8 20 18.1 102030 73
2009-06-17 09:24:16 51°19.194 2°37.645 4.8 236 18.1 102030 73
2009-06-17 09:24:21 51°19.201 2°37.622 5.4 280 18.1 102040 72
2009-06-17 09:24:26 51°19.208 2°37.598 6.7 240 18.1 102040 72
2009-06-17 09:24:31 51°19.215 2°37.575 5.3 24 18.1 102030 73
2009-06-17 09:24:36 51°19.223 2°37.551 6.3 236 18.1 102030 73
2009-06-17 09:24:41 51°19.23 2°37.528 5.2 286 18.1 102030 72
2009-06-17 09:24:46 51°19.238 2°37.505 5.1 237 18.1 102030 72
2009-06-17 09:24:51 51°19.245 2°37.482 6 283 18.1 102030 72
2009-06-17 09:24:56 51°19.252 2°37.459 6 32 18.1 102030 72
2009-06-17 09:25:01 51°19.26 2°37.436 5.2 285 18.1 102030 73
2009-06-17 09:25:06 51°19.266 2°37.412 4.9 234 18.1 102030 73
2009-06-17 09:25:11 51°19.274 2°37.389 5 27 18.1 102030 73
2009-06-17 09:25:16 51°19.28 2°37.366 4.9 236 18.1 102030 73
2009-06-17 09:25:21 51°19.287 2°37.343 4.9 280 18.1 102040 73
2009-06-17 09:25:26 51°19.295 2°37.32 6.4 236 18.1 102040 73
2009-06-17 09:25:31 51°19.302 2°37.296 6.7 28 18.1 102030 73
2009-06-17 09:25:37 51°19.31 2°37.269 5 234 18.1 102030 73
2009-06-17 09:25:41 51°19.315 2°37.25 4.8 279 18.1 102020 73
2009-06-17 09:25:45 51°19.322 2°37.232 6.2 35 18.1 102020 73
2009-06-17 09:25:51 51°19.33 2°37.203 6.1 21 18.1 102030 73
2009-06-17 09:25:56 51°19.338 2°37.181 5.5 237 18.1 102030 73
2009-06-17 09:26:01 51°19.344 2°37.157 5.2 284 18.1 102030 73
2009-06-17 09:26:06 51°19.351 2°37.134 5.7 36 18.1 102030 73
2009-06-17 09:26:11 51°19.359 2°37.111 4.9 28 18.1 102030 73
2009-06-17 09:26:16 51°19.366 2°37.087 4.7 33 18.1 102030 73
2009-06-17 09:26:21 51°19.374 2°37.065 4.7 279 18.1 102030 73
2009-06-17 09:26:25 51°19.38 2°37.047 4.7 235 18.1 102030 73
2009-06-17 09:26:31 51°19.389 2°37.019 5 28 18.1 102030 73
2009-06-17 09:26:36 51°19.396 2°36.996 5.2 235 18.1 102030 73
2009-06-17 09:26:41 51°19.403 2°36.972 6.1 280 18.1 102040 73
2009-06-17 09:26:46 51°19.41 2°36.95 4.8 234 18.1 102040 73
2009-06-17 09:26:51 51°19.418 2°36.927 5.3 284 18.1 102040 74
2009-06-17 09:26:56 51°19.426 2°36.904 6 237 18.1 102040 74
2009-06-17 09:27:01 51°19.433 2°36.88 5 278 18 102030 74
2009-06-17 09:27:06 51°19.441 2°36.857 6.9 31 18 102030 74
2009-06-17 09:27:11 51°19.447 2°36.833 5.8 278 18 102030 73
2009-06-17 09:27:16 51°19.455 2°36.811 6.1 236 18 102030 73
2009-06-17 09:27:21 51°19.463 2°36.788 5.1 281 18 102030 74
2009-06-17 09:27:26 51°19.47 2°36.765 6.2 235 18 102030 74
2009-06-17 09:27:31 51°19.477 2°36.742 6.2 29 18 102030 73
2009-06-17 09:27:36 51°19.484 2°36.718 5.4 236 18 102030 73
2009-06-17 09:27:41 51°19.491 2°36.695 5.4 283 18 102040 73
2009-06-17 09:27:46 51°19.498 2°36.672 5.9 234 18 102040 73
2009-06-17 09:27:51 51°19.504 2°36.648 6.9 281 18 102030 73
2009-06-17 09:27:56 51°19.51 2°36.624 6.8 232 18 102030 73
2009-06-17 09:28:01 51°19.516 2°36.601 6.3 280 18 102030 74
2009-06-17 09:28:06 51°19.522 2°36.577 5.3 35 18 102030 74
2009-06-17 09:28:11 51°19.528 2°36.553 6.5 21 18 102030 74
2009-06-17 09:28:16 51°19.533 2°36.529 5.5 234 18 102030 74
2009-06-17 09:28:21 51°19.539 2°36.505 7 284 18 102030 74
2009-06-17 09:28:26 51°19.545 2°36.481 7.2 234 18 102030 74
2009-06-17 09:28:31 51°19.55 2°36.457 5.7 25 18 102030 73
2009-06-17 09:28:36 51°19.556 2°36.433 7.3 236 18 102030 73
2009-06-17 09:28:41 51°19.562 2°36.409 8.1 285 18 102030 73
2009-06-17 09:28:46 51°19.567 2°36.384 6.3 34 18 102030 73
2009-06-17 09:28:51 51°19.573 2°36.36 5.6 27 18 102020 73
2009-06-17 09:28:56 51°19.578 2°36.336 6.7 233 18 102020 73
2009-06-17 09:29:01 51°19.584 2°36.312 6.9 278 17.9 102030 74
2009-06-17 09:29:06 51°19.589 2°36.288 5.6 235 17.9 102030 74
2009-06-17 09:29:11 51°19.595 2°36.264 5.7 281 17.9 102020 73
2009-06-17 09:29:16 51°19.6 2°36.24 5.8 232 17.9 102020 73
2009-06-17 09:29:21 51°19.606 2°36.216 7.2 287 17.9 102020 73
2009-06-17 09:29:26 51°19.611 2°36.191 6.8 230 17.9 102020 73
2009-06-17 09:29:31 51°19.616 2°36.167 7.4 27 17.9 102030 73
2009-06-17 09:29:36 51°19.621 2°36.143 7.2 233 17.9 102030 73
2009-06-17 09:29:41 51°19.626 2°36.119 5.8 284 17.9 102030 73
2009-06-17 09:29:46 51°19.632 2°36.094 7 33 17.9 102030 73
2009-06-17 09:29:51 51°19.637 2°36.07 6.8 27 17.9 102030 73
2009-06-17 09:29:57 51°19.643 2°36.041 6 37 17.9 102030 73
2009-06-17 09:30:01 51°19.648 2°36.022 5.9 279 17.9 102020 73
2009-06-17 09:30:06 51°19.653 2°35.998 7.1 233 17.9 102020 73
2009-06-17 09:30:11 51°19.659 2°35.974 7.3 29 17.8 102030 73
2009-06-17 09:30:16 51°19.665 2°35.95 6.2 232 17.8 102030 73
2009-06-17 09:30:21 51°19.67 2°35.926 7.4 285 17.8 102030 74
2009-06-17 09:30:25 51°19.675 2°35.906 6.6 34 17.8 102030 74
2009-06-17 09:30:31 51°19.682 2°35.877 5.9 28 17.8 102020 74
2009-06-17 09:30:36 51°19.688 2°35.854 7.8 32 17.8 102020 74
2009-06-17 09:30:41 51°19.693 2°35.829 7.2 278 17.8 102030 73
2009-06-17 09:30:46 51°19.699 2°35.806 6 33 17.8 102030 73
2009-06-17 09:30:51 51°19.704 2°35.782 7.4 21 17.8 102020 74
2009-06-17 09:30:56 51°19.71 2°35.758 7.4 35 17.8 102020 74
2009-06-17 09:31:01 51°19.716 2°35.735 7.2 282 17.8 102030 74
2009-06-17 09:31:06 51°19.721 2°35.71 6 232 17.8 102030 74
2009-06-17 09:31:11 51°19.727 2°35.686 5.6 27 17.8 102020 74
2009-06-17 09:31:16 51°19.733 2°35.662 7 233 17.8 102020 74
2009-06-17 09:31:21 51°19.738 2°35.637 6.6 279 17.7 102030 74
2009-06-17 09:31:26 51°19.744 2°35.613 6.1 35 17.7 102030 74
2009-06-17 09:31:31 51°19.749 2°35.59 5.4 22 17.7 102030 74
2009-06-17 09:31:36 51°19.755 2°35.565 5.6 36 17.7 102030 74
2009-06-17 09:31:41 51°19.761 2°35.541 6.1 278 17.7 102020 74
2009-06-17 09:31:46 51°19.766 2°35.517 6.9 230 17.7 102020 74
2009-06-17 09:31:52 51°19.773 2°35.489 5.8 282 17.7 102030 74
2009-06-17 09:31:56 51°19.777 2°35.469 7.2 36 17.7 102030 74
2009-06-17 09:32:01 51°19.782 2°35.445 7 279 17.7 102030 75
2009-06-17 09:32:06 51°19.788 2°35.422 5.8 38 17.7 102030 75
2009-06-17 09:32:11 51°19.794 2°35.397 7.5 29 17.7 102030 75
2009-06-17 09:32:16 51°19.799 2°35.373 6 38 17.7 102030 75
2009-06-17 09:32:21 51°19.805 2°35.349 6.2 285 17.7 102020 74
2009-06-17 09:32:26 51°19.811 2°35.325 7.6 32 17.7 102020 74
2009-06-17 09:32:31 51°19.816 2°35.301 7.4 29 17.7 102030 74
2009-06-17 09:32:36 51°19.822 2°35.278 7.5 233 17.7 102030 74
2009-06-17 09:32:41 51°19.828 2°35.254 6.1 286 17.6 102030 75
2009-06-17 09:32:46 51°19.834 2°35.23 7.4 31 17.6 102030 75
2009-06-17 09:32:51 51°19.841 2°35.206 5.9 26 17.6 102030 75
2009-06-17 09:32:56 51°19.846 2°35.182 5.9 231 17.6 102030 75
2009-06-17 09:33:01 51°19.852 2°35.158 6.8 284 17.6 102030 75
2009-06-17 09:33:06 51°19.858 2°35.134 7.9 232 17.6 102030 75
2009-06-17 09:33:11 51°19.864 2°35.11 7.4 279 17.6 102030 75
2009-06-17 09:33:16 51°19.87 2°35.086 7.6 38 17.6 102030 75
2009-06-17 09:33:21 51°19.875 2°35.063 6.5 23 17.6 102020 75
2009-06-17 09:33:26 51°19.881 2°35.039 8.1 233 17.6 102020 75
2009-06-17 09:33:32 51°19.888 2°35.01 6.9 23 17.6 102030 75
2009-06-17 09:33:36 51°19.893 2°34.991 7.9 34 17.6 102030 75
2009-06-17 09:33:41 51°19.899 2°34.967 6.8 23 17.6 102040 74
2009-06-17 09:33:46 51°19.905 2°34.943 8 232 17.6 102040 74
2009-06-17 09:33:51 51°19.911 2°34.919 7.9 279 17.6 102020 74